createdAt,value
2023-04-09T00:00:10.226Z,4.90
2023-04-09T00:02:40.874Z,4.90
2023-04-09T00:05:08.233Z,5.00
2023-04-09T00:07:35.441Z,4.90
2023-04-09T00:10:02.471Z,4.90
2023-04-09T00:12:30.340Z,5.00
2023-04-09T00:14:57.665Z,5.00
2023-04-09T00:17:24.866Z,4.90
2023-04-09T00:19:52.024Z,5.00
2023-04-09T00:22:19.163Z,5.00
2023-04-09T00:24:46.221Z,4.90
2023-04-09T00:27:13.319Z,4.90
2023-04-09T00:29:40.409Z,4.90
2023-04-09T00:32:07.560Z,5.00
2023-04-09T00:34:34.835Z,5.00
2023-04-09T00:37:01.885Z,5.00
2023-04-09T00:39:28.994Z,5.00
2023-04-09T00:41:57.779Z,5.00
2023-04-09T00:44:25.384Z,5.00
2023-04-09T00:46:52.607Z,5.00
2023-04-09T00:49:19.655Z,5.00
2023-04-09T00:51:46.771Z,5.00
2023-04-09T00:54:13.890Z,5.00
2023-04-09T00:56:41.046Z,5.00
2023-04-09T00:59:08.243Z,5.00
2023-04-09T01:01:35.412Z,5.00
2023-04-09T01:04:02.587Z,4.90
2023-04-09T01:06:43.001Z,5.00
2023-04-09T01:09:15.903Z,4.90
2023-04-09T01:12:02.609Z,5.00
2023-04-09T01:14:32.785Z,4.90
2023-04-09T01:17:05.187Z,5.00
2023-04-09T01:19:49.494Z,4.90
2023-04-09T01:22:25.718Z,4.90
2023-04-09T01:25:08.202Z,4.90
2023-04-09T01:27:45.375Z,4.90
2023-04-09T01:30:12.653Z,4.90
2023-04-09T01:32:39.748Z,4.90
2023-04-09T01:35:07.033Z,4.90
2023-04-09T01:37:34.102Z,4.80
2023-04-09T01:40:01.491Z,4.80
2023-04-09T01:42:28.785Z,4.80
2023-04-09T01:44:55.800Z,4.80
2023-04-09T01:47:22.898Z,4.80
2023-04-09T01:49:49.937Z,4.80
2023-04-09T01:52:16.997Z,4.80
2023-04-09T01:54:44.178Z,4.80
2023-04-09T01:57:11.354Z,4.80
2023-04-09T01:59:38.495Z,4.80
2023-04-09T02:02:06.770Z,4.80
2023-04-09T02:04:34.467Z,4.80
2023-04-09T02:07:07.699Z,4.90
2023-04-09T02:09:36.338Z,4.80
2023-04-09T02:12:04.458Z,4.80
2023-04-09T02:14:34.642Z,4.80
2023-04-09T02:17:01.722Z,4.80
2023-04-09T02:19:39.548Z,4.80
2023-04-09T02:22:06.606Z,4.80
2023-04-09T02:24:33.745Z,4.80
2023-04-09T02:27:02.018Z,4.80
2023-04-09T02:29:30.348Z,4.80
2023-04-09T02:31:57.452Z,4.80
2023-04-09T02:34:24.533Z,4.80
2023-04-09T02:36:51.640Z,4.80
2023-04-09T02:39:18.859Z,4.80
2023-04-09T02:41:46.947Z,4.80
2023-04-09T02:44:14.026Z,4.80
2023-04-09T02:46:42.534Z,4.80
2023-04-09T02:49:09.663Z,4.80
2023-04-09T02:51:36.739Z,4.80
2023-04-09T02:54:03.932Z,4.70
2023-04-09T02:56:32.012Z,4.70
2023-04-09T02:58:59.979Z,4.70
2023-04-09T03:01:27.121Z,4.70
2023-04-09T03:03:54.524Z,4.80
2023-04-09T03:06:21.695Z,4.80
2023-04-09T03:08:48.809Z,4.70
2023-04-09T03:11:16.003Z,4.80
2023-04-09T03:13:43.089Z,4.70
2023-04-09T03:16:10.369Z,4.70
2023-04-09T03:18:37.580Z,4.70
2023-04-09T03:21:07.821Z,4.70
2023-04-09T03:23:37.285Z,4.70
2023-04-09T03:26:06.249Z,4.70
2023-04-09T03:28:48.686Z,4.70
2023-04-09T03:31:17.034Z,4.70
2023-04-09T03:33:45.532Z,4.70
2023-04-09T03:36:12.972Z,4.70
2023-04-09T03:38:58.487Z,4.60
2023-04-09T03:41:35.264Z,4.60
2023-04-09T03:44:05.988Z,4.60
2023-04-09T03:46:53.831Z,4.60
2023-04-09T03:49:21.150Z,4.60
2023-04-09T03:51:48.263Z,4.60
2023-04-09T03:54:15.980Z,4.60
2023-04-09T03:56:44.305Z,4.60
2023-04-09T03:59:13.550Z,4.50
2023-04-09T04:01:44.560Z,4.50
2023-04-09T04:04:11.954Z,4.50
2023-04-09T04:06:46.281Z,4.50
2023-04-09T04:09:23.185Z,4.40
2023-04-09T04:11:56.910Z,4.30
2023-04-09T04:14:27.281Z,4.30
2023-04-09T04:17:01.026Z,4.30
2023-04-09T04:19:30.542Z,4.20
2023-04-09T04:21:58.206Z,4.20
2023-04-09T04:24:25.447Z,4.20
2023-04-09T04:26:52.722Z,4.20
2023-04-09T04:29:21.698Z,4.20
2023-04-09T04:31:55.414Z,4.20
2023-04-09T04:34:25.331Z,4.20
2023-04-09T04:37:01.170Z,4.20
2023-04-09T04:39:31.737Z,4.10
2023-04-09T04:42:06.332Z,4.10
2023-04-09T04:44:33.588Z,4.10
2023-04-09T04:47:11.994Z,4.10
2023-04-09T04:49:39.203Z,4.10
2023-04-09T04:52:08.306Z,4.10
2023-04-09T04:54:37.640Z,4.10
2023-04-09T04:57:05.142Z,4.10
2023-04-09T04:59:42.260Z,4.10
2023-04-09T05:02:11.650Z,4.10
2023-04-09T05:05:12.957Z,4.10
2023-04-09T05:07:46.824Z,4.10
2023-04-09T05:10:14.902Z,4.20
2023-04-09T05:12:43.340Z,4.20
2023-04-09T05:15:12.858Z,4.20
2023-04-09T05:17:42.568Z,4.20
2023-04-09T05:20:10.258Z,4.10
2023-04-09T05:22:47.230Z,4.20
2023-04-09T05:25:16.170Z,4.20
2023-04-09T05:27:43.548Z,4.20
2023-04-09T05:30:10.868Z,4.10
2023-04-09T05:32:38.962Z,4.20
2023-04-09T05:35:06.259Z,4.20
2023-04-09T05:37:38.968Z,4.20
2023-04-09T05:40:07.126Z,4.10
2023-04-09T05:42:34.251Z,4.10
2023-04-09T05:45:10.600Z,4.10
2023-04-09T05:47:39.699Z,4.20
2023-04-09T05:50:15.448Z,4.30
2023-04-09T05:52:42.908Z,4.50
2023-04-09T05:55:11.944Z,4.70
2023-04-09T05:57:45.434Z,4.90
2023-04-09T06:00:13.420Z,5.20
2023-04-09T06:02:48.326Z,5.40
2023-04-09T06:05:15.500Z,5.70
2023-04-09T06:07:42.605Z,5.80
2023-04-09T06:10:09.685Z,5.90
2023-04-09T06:12:36.838Z,6.00
2023-04-09T06:15:04.738Z,6.10
2023-04-09T06:17:31.908Z,6.10
2023-04-09T06:19:58.990Z,6.30
2023-04-09T06:22:26.103Z,6.40
2023-04-09T06:24:53.156Z,6.50
2023-04-09T06:27:21.984Z,6.50
2023-04-09T06:29:49.065Z,6.50
2023-04-09T06:32:16.430Z,6.60
2023-04-09T06:34:43.557Z,6.60
2023-04-09T06:37:10.656Z,6.60
2023-04-09T06:39:40.362Z,6.60
2023-04-09T06:42:09.615Z,6.70
2023-04-09T06:44:50.678Z,6.60
2023-04-09T06:47:17.780Z,6.60
2023-04-09T06:49:44.769Z,6.70
2023-04-09T06:52:12.029Z,6.80
2023-04-09T06:54:39.090Z,6.80
2023-04-09T06:57:06.580Z,6.80
2023-04-09T06:59:33.853Z,6.90
2023-04-09T07:02:01.950Z,6.90
2023-04-09T07:04:29.148Z,7.00
2023-04-09T07:06:59.117Z,7.00
2023-04-09T07:09:26.179Z,7.00
2023-04-09T07:11:53.185Z,7.20
2023-04-09T07:14:20.259Z,7.20
2023-04-09T07:16:47.443Z,7.20
2023-04-09T07:19:14.518Z,7.40
2023-04-09T07:21:42.597Z,7.50
2023-04-09T07:24:09.669Z,7.70
2023-04-09T07:26:37.222Z,8.00
2023-04-09T07:29:05.263Z,8.20
2023-04-09T07:31:35.281Z,8.40
2023-04-09T07:34:03.056Z,8.50
2023-04-09T07:36:31.770Z,8.60
2023-04-09T07:38:58.887Z,8.60
2023-04-09T07:41:26.088Z,8.50
2023-04-09T07:43:53.117Z,8.60
2023-04-09T07:46:21.260Z,8.70
2023-04-09T07:48:50.048Z,8.70
2023-04-09T07:51:17.425Z,8.80
2023-04-09T07:53:44.494Z,8.90
2023-04-09T07:56:12.160Z,8.90
2023-04-09T07:58:39.268Z,9.00
2023-04-09T08:01:06.442Z,9.00
2023-04-09T08:03:33.750Z,8.90
2023-04-09T08:06:01.245Z,8.80
2023-04-09T08:08:28.456Z,8.80
2023-04-09T08:10:55.543Z,8.90
2023-04-09T08:13:25.794Z,8.90
2023-04-09T08:15:52.969Z,8.80
2023-04-09T08:18:20.120Z,8.70
2023-04-09T08:20:47.195Z,8.60
2023-04-09T08:23:14.267Z,8.70
2023-04-09T08:25:41.613Z,9.00
2023-04-09T08:28:08.996Z,9.20
2023-04-09T08:30:36.337Z,9.30
2023-04-09T08:33:03.450Z,9.20
2023-04-09T08:35:30.735Z,9.00
2023-04-09T08:37:58.818Z,8.80
2023-04-09T08:40:25.876Z,8.80
2023-04-09T08:42:54.163Z,8.90
2023-04-09T08:45:21.265Z,9.10
2023-04-09T08:47:48.592Z,9.20
2023-04-09T08:50:16.085Z,9.30
2023-04-09T08:52:43.144Z,9.30
2023-04-09T08:55:10.197Z,9.30
2023-04-09T08:57:38.300Z,9.20
2023-04-09T09:00:06.115Z,9.10
2023-04-09T09:02:33.232Z,9.20
2023-04-09T09:05:01.062Z,9.30
2023-04-09T09:07:29.082Z,9.20
2023-04-09T09:09:59.781Z,9.00
2023-04-09T09:12:36.997Z,9.00
2023-04-09T09:15:04.848Z,9.10
2023-04-09T09:17:32.102Z,9.30
2023-04-09T09:20:15.190Z,9.40
2023-04-09T09:22:49.182Z,9.20
2023-04-09T09:25:24.797Z,9.20
2023-04-09T09:27:52.205Z,9.30
2023-04-09T09:30:26.037Z,9.30
2023-04-09T09:32:53.846Z,9.40
2023-04-09T09:35:21.108Z,9.40
2023-04-09T09:37:48.268Z,9.40
2023-04-09T09:40:26.612Z,9.20
2023-04-09T09:42:59.742Z,9.10
2023-04-09T09:45:26.838Z,9.00
2023-04-09T09:47:54.450Z,9.00
2023-04-09T09:50:23.115Z,9.10
2023-04-09T09:52:50.284Z,9.00
2023-04-09T09:55:17.400Z,9.00
2023-04-09T09:57:44.562Z,8.90
2023-04-09T10:00:12.093Z,8.90
2023-04-09T10:02:53.946Z,9.10
2023-04-09T10:05:24.963Z,9.20
2023-04-09T10:07:52.056Z,9.20
2023-04-09T10:10:19.131Z,9.30
2023-04-09T10:12:46.288Z,9.40
2023-04-09T10:15:13.356Z,9.40
2023-04-09T10:17:40.453Z,9.40
2023-04-09T10:20:11.703Z,9.40
2023-04-09T10:22:39.166Z,9.50
2023-04-09T10:25:06.514Z,9.50
2023-04-09T10:27:33.590Z,9.50
2023-04-09T10:30:00.742Z,9.50
2023-04-09T10:32:28.885Z,9.50
2023-04-09T10:34:57.093Z,9.50
2023-04-09T10:37:25.108Z,9.50
2023-04-09T10:39:52.535Z,9.50
2023-04-09T10:42:24.688Z,9.50
2023-04-09T10:45:04.832Z,9.40
2023-04-09T10:47:33.569Z,9.40
2023-04-09T10:50:18.965Z,9.40
2023-04-09T10:52:46.218Z,9.50
2023-04-09T10:55:45.924Z,9.50
2023-04-09T10:58:13.812Z,9.40
2023-04-09T11:00:41.861Z,9.40
2023-04-09T11:03:09.185Z,9.30
2023-04-09T11:05:38.352Z,9.30
2023-04-09T11:08:06.912Z,9.60
2023-04-09T11:10:34.077Z,9.70
2023-04-09T11:13:01.488Z,9.80
2023-04-09T11:15:28.564Z,9.90
2023-04-09T11:17:56.203Z,10.00
2023-04-09T11:20:23.871Z,10.10
2023-04-09T11:22:51.590Z,10.10
2023-04-09T11:25:21.236Z,10.20
2023-04-09T11:27:48.401Z,10.20
2023-04-09T11:30:15.708Z,10.20
2023-04-09T11:32:42.805Z,10.20
2023-04-09T11:35:15.517Z,10.10
2023-04-09T11:37:42.855Z,10.10
2023-04-09T11:40:17.109Z,10.00
2023-04-09T11:42:44.794Z,9.90
2023-04-09T11:45:12.843Z,9.90
2023-04-09T11:47:41.321Z,9.80
2023-04-09T11:50:08.961Z,9.70
2023-04-09T11:52:36.042Z,9.60
2023-04-09T11:55:04.451Z,9.60
2023-04-09T11:57:39.182Z,9.60
2023-04-09T12:00:16.909Z,9.60
2023-04-09T12:02:47.845Z,9.50
2023-04-09T12:05:21.196Z,9.40
2023-04-09T12:07:55.560Z,9.40
2023-04-09T12:10:26.426Z,9.30
2023-04-09T12:12:53.567Z,9.30
2023-04-09T12:15:21.532Z,9.30
2023-04-09T12:17:49.476Z,9.30
2023-04-09T12:20:36.134Z,9.30
2023-04-09T12:23:03.722Z,9.40
2023-04-09T12:25:33.747Z,9.30
2023-04-09T12:28:01.489Z,9.30
2023-04-09T12:30:28.695Z,9.20
2023-04-09T12:32:55.828Z,9.20
2023-04-09T12:35:24.038Z,9.20
2023-04-09T12:37:51.408Z,9.30
2023-04-09T12:40:19.033Z,9.40
2023-04-09T12:42:46.597Z,9.60
2023-04-09T12:45:14.554Z,9.70
2023-04-09T12:47:41.782Z,9.70
2023-04-09T12:50:09.299Z,9.90
2023-04-09T12:52:36.406Z,10.00
2023-04-09T12:55:03.874Z,10.20
2023-04-09T12:57:31.036Z,10.20
2023-04-09T12:59:58.138Z,10.10
2023-04-09T13:02:25.695Z,10.10
2023-04-09T13:04:52.963Z,10.10
2023-04-09T13:07:20.418Z,9.90
2023-04-09T13:09:48.884Z,9.80
2023-04-09T13:12:16.364Z,9.70
2023-04-09T13:14:43.656Z,9.50
2023-04-09T13:17:10.823Z,9.50
2023-04-09T13:19:37.960Z,9.40
2023-04-09T13:22:07.819Z,9.40
2023-04-09T13:24:36.051Z,9.30
2023-04-09T13:27:04.494Z,9.40
2023-04-09T13:29:31.969Z,9.40
2023-04-09T13:32:01.623Z,9.30
2023-04-09T13:34:28.831Z,9.30
2023-04-09T13:36:56.319Z,9.30
2023-04-09T13:39:23.475Z,9.30
2023-04-09T13:41:50.650Z,9.30
2023-04-09T13:44:17.816Z,9.40
2023-04-09T13:46:45.026Z,9.40
2023-04-09T13:49:12.505Z,9.50
2023-04-09T13:51:39.572Z,9.50
2023-04-09T13:54:08.524Z,9.50
2023-04-09T13:56:35.644Z,9.50
2023-04-09T13:59:02.867Z,9.50
2023-04-09T14:01:30.119Z,9.60
2023-04-09T14:03:57.633Z,9.70
2023-04-09T14:06:24.921Z,9.90
2023-04-09T14:08:52.189Z,10.00
2023-04-09T14:11:21.458Z,10.00
2023-04-09T14:13:48.649Z,10.10
2023-04-09T14:16:16.013Z,10.30
2023-04-09T14:18:43.082Z,10.20
2023-04-09T14:21:11.264Z,10.20
2023-04-09T14:23:39.099Z,10.00
2023-04-09T14:26:06.457Z,9.80
2023-04-09T14:28:33.585Z,9.70
2023-04-09T14:31:01.163Z,9.70
2023-04-09T14:33:28.325Z,9.70
2023-04-09T14:35:55.546Z,9.90
2023-04-09T14:38:24.051Z,10.00
2023-04-09T14:40:51.285Z,10.00
2023-04-09T14:43:18.514Z,10.00
2023-04-09T14:45:46.709Z,9.90
2023-04-09T14:48:13.775Z,9.90
2023-04-09T14:50:43.027Z,10.00
2023-04-09T14:53:10.200Z,10.20
2023-04-09T14:55:37.781Z,10.30
2023-04-09T14:58:07.127Z,10.40
2023-04-09T15:00:34.187Z,10.30
2023-04-09T15:03:01.499Z,10.10
2023-04-09T15:05:28.737Z,9.90
2023-04-09T15:07:56.005Z,9.70
2023-04-09T15:10:23.012Z,9.60
2023-04-09T15:12:50.178Z,9.50
2023-04-09T15:15:17.264Z,9.50
2023-04-09T15:17:44.397Z,9.50
2023-04-09T15:20:11.654Z,9.60
2023-04-09T15:22:38.697Z,9.70
2023-04-09T15:25:06.069Z,9.80
2023-04-09T15:27:33.167Z,9.80
2023-04-09T15:30:00.339Z,9.90
2023-04-09T15:32:28.509Z,9.90
2023-04-09T15:34:55.700Z,9.90
2023-04-09T15:37:22.909Z,9.90
2023-04-09T15:39:49.987Z,9.90
2023-04-09T15:42:22.333Z,9.80
2023-04-09T15:44:49.922Z,9.80
2023-04-09T15:47:17.243Z,9.70
2023-04-09T15:49:44.306Z,9.80
2023-04-09T15:52:11.422Z,9.80
2023-04-09T15:54:38.541Z,9.80
2023-04-09T15:57:05.579Z,9.90
2023-04-09T15:59:32.625Z,9.80
2023-04-09T16:01:59.748Z,9.70
2023-04-09T16:04:27.589Z,9.60
2023-04-09T16:06:56.228Z,9.50
2023-04-09T16:09:23.655Z,9.50
2023-04-09T16:11:51.101Z,9.40
2023-04-09T16:14:18.218Z,9.40
2023-04-09T16:16:49.564Z,9.40
2023-04-09T16:19:17.598Z,9.40
2023-04-09T16:21:45.432Z,9.40
2023-04-09T16:24:12.726Z,9.40
2023-04-09T16:26:40.817Z,9.40
2023-04-09T16:29:08.040Z,9.40
2023-04-09T16:31:35.955Z,9.40
2023-04-09T16:34:03.032Z,9.40
2023-04-09T16:36:31.465Z,9.30
2023-04-09T16:38:58.600Z,9.40
2023-04-09T16:41:25.667Z,9.30
2023-04-09T16:43:52.830Z,9.30
2023-04-09T16:46:19.988Z,9.30
2023-04-09T16:48:47.051Z,9.30
2023-04-09T16:51:15.404Z,9.30
2023-04-09T16:53:42.469Z,9.30
2023-04-09T16:56:09.614Z,9.30
2023-04-09T16:58:36.715Z,9.20
2023-04-09T17:01:03.862Z,9.20
2023-04-09T17:03:31.153Z,9.20
2023-04-09T17:05:58.403Z,9.20
2023-04-09T17:08:25.669Z,9.20
2023-04-09T17:10:54.653Z,9.10
2023-04-09T17:13:21.769Z,9.10
2023-04-09T17:15:49.883Z,9.10
2023-04-09T17:18:17.003Z,9.00
2023-04-09T17:20:47.058Z,9.00
2023-04-09T17:23:14.701Z,9.00
2023-04-09T17:25:42.178Z,9.00
2023-04-09T17:28:09.328Z,8.90
2023-04-09T17:30:36.474Z,8.90
2023-04-09T17:33:03.592Z,8.90
2023-04-09T17:35:30.751Z,8.80
2023-04-09T17:37:57.816Z,8.80
2023-04-09T17:40:24.826Z,8.80
2023-04-09T17:42:52.925Z,8.70
2023-04-09T17:45:19.989Z,8.70
2023-04-09T17:47:47.163Z,8.60
2023-04-09T17:50:14.249Z,8.60
2023-04-09T17:52:41.421Z,8.60
2023-04-09T17:55:09.042Z,8.50
2023-04-09T17:57:36.646Z,8.50
2023-04-09T18:00:04.263Z,8.50
2023-04-09T18:02:31.816Z,8.40
2023-04-09T18:05:00.143Z,8.40
2023-04-09T18:07:33.167Z,8.40
2023-04-09T18:10:01.218Z,8.30
2023-04-09T18:12:28.348Z,8.30
2023-04-09T18:14:55.513Z,8.30
2023-04-09T18:17:22.720Z,8.20
2023-04-09T18:19:49.860Z,8.20
2023-04-09T18:22:16.967Z,8.20
2023-04-09T18:24:44.108Z,8.20
2023-04-09T18:27:11.206Z,8.10
2023-04-09T18:29:38.289Z,8.10
2023-04-09T18:32:05.450Z,8.00
2023-04-09T18:34:32.494Z,8.00
2023-04-09T18:36:59.552Z,7.90
2023-04-09T18:39:27.382Z,7.90
2023-04-09T18:41:54.453Z,7.90
2023-04-09T18:44:21.687Z,7.80
2023-04-09T18:46:48.835Z,7.80
2023-04-09T18:49:16.185Z,7.80
2023-04-09T18:51:43.350Z,7.70
2023-04-09T18:54:11.415Z,7.70
2023-04-09T18:56:38.471Z,7.70
2023-04-09T18:59:05.712Z,7.70
2023-04-09T19:01:32.807Z,7.70
2023-04-09T19:04:00.117Z,7.60
2023-04-09T19:06:27.859Z,7.60
2023-04-09T19:08:58.062Z,7.60
2023-04-09T19:11:25.819Z,7.60
2023-04-09T19:13:52.934Z,7.50
2023-04-09T19:16:20.724Z,7.50
2023-04-09T19:18:47.839Z,7.40
2023-04-09T19:21:14.966Z,7.40
2023-04-09T19:23:41.969Z,7.40
2023-04-09T19:26:09.135Z,7.30
2023-04-09T19:28:36.184Z,7.30
2023-04-09T19:31:05.021Z,7.20
2023-04-09T19:33:32.060Z,7.20
2023-04-09T19:35:59.269Z,7.20
2023-04-09T19:38:26.356Z,7.20
2023-04-09T19:40:53.466Z,7.20
2023-04-09T19:43:20.934Z,7.10
2023-04-09T19:45:47.978Z,7.10
2023-04-09T19:48:15.042Z,7.10
2023-04-09T19:50:43.348Z,7.10
2023-04-09T19:53:10.743Z,7.00
2023-04-09T19:55:37.874Z,7.00
2023-04-09T19:58:05.025Z,7.00
2023-04-09T20:00:32.582Z,7.00
2023-04-09T20:02:59.971Z,7.00
2023-04-09T20:05:27.817Z,6.90
2023-04-09T20:07:54.938Z,6.90
2023-04-09T20:10:22.007Z,7.00
2023-04-09T20:12:49.275Z,6.90
2023-04-09T20:15:17.549Z,6.90
2023-04-09T20:17:44.654Z,6.90
2023-04-09T20:20:12.177Z,6.90
2023-04-09T20:22:43.231Z,6.80
2023-04-09T20:25:11.278Z,6.80
2023-04-09T20:27:38.694Z,6.80
2023-04-09T20:30:07.153Z,6.80
2023-04-09T20:32:35.815Z,6.80
2023-04-09T20:35:02.957Z,6.80
2023-04-09T20:37:30.304Z,6.80
2023-04-09T20:39:58.827Z,6.70
2023-04-09T20:42:26.197Z,6.70
2023-04-09T20:44:53.922Z,6.60
2023-04-09T20:47:21.979Z,6.60
2023-04-09T20:49:50.910Z,6.60
2023-04-09T20:52:18.289Z,6.60
2023-04-09T20:54:45.825Z,6.50
2023-04-09T20:57:13.969Z,6.50
2023-04-09T20:59:41.267Z,6.50
2023-04-09T21:02:08.848Z,6.50
2023-04-09T21:04:35.926Z,6.40
2023-04-09T21:07:02.959Z,6.40
2023-04-09T21:09:31.476Z,6.30
2023-04-09T21:11:58.618Z,6.30
2023-04-09T21:14:26.456Z,6.30
2023-04-09T21:16:55.589Z,6.40
2023-04-09T21:19:22.753Z,6.30
2023-04-09T21:21:49.842Z,6.30
2023-04-09T21:24:18.339Z,6.30
2023-04-09T21:26:51.516Z,6.30
2023-04-09T21:29:21.535Z,6.20
2023-04-09T21:31:48.813Z,6.20
2023-04-09T21:34:16.023Z,6.20
2023-04-09T21:36:44.829Z,6.10
2023-04-09T21:39:12.457Z,6.10
2023-04-09T21:41:39.599Z,6.10
2023-04-09T21:44:09.762Z,6.00
2023-04-09T21:46:37.151Z,6.10
2023-04-09T21:49:04.332Z,6.00
2023-04-09T21:51:31.959Z,6.00
2023-04-09T21:54:03.194Z,6.00
2023-04-09T21:56:30.260Z,6.00
2023-04-09T21:58:57.377Z,5.90
2023-04-09T22:01:29.206Z,5.90
2023-04-09T22:04:00.282Z,5.90
2023-04-09T22:06:28.630Z,5.90
2023-04-09T22:08:57.077Z,5.80
2023-04-09T22:11:25.903Z,5.80
2023-04-09T22:13:54.336Z,5.80
2023-04-09T22:16:21.622Z,5.70
2023-04-09T22:18:48.937Z,5.70
2023-04-09T22:21:16.434Z,5.70
2023-04-09T22:23:43.711Z,5.60
2023-04-09T22:26:10.841Z,5.70
2023-04-09T22:28:38.406Z,5.60
2023-04-09T22:31:05.961Z,5.60
2023-04-09T22:33:33.137Z,5.60
2023-04-09T22:36:00.312Z,5.50
2023-04-09T22:38:27.660Z,5.50
2023-04-09T22:40:54.678Z,5.50
2023-04-09T22:43:22.497Z,5.40
2023-04-09T22:45:50.981Z,5.40
2023-04-09T22:48:18.172Z,5.40
2023-04-09T22:50:45.869Z,5.40
2023-04-09T22:53:12.988Z,5.40
2023-04-09T22:55:40.038Z,5.40
2023-04-09T22:58:07.081Z,5.40
2023-04-09T23:00:34.222Z,5.30
2023-04-09T23:03:01.406Z,5.30
2023-04-09T23:05:28.502Z,5.30
2023-04-09T23:07:55.633Z,5.20
2023-04-09T23:10:22.657Z,5.20
2023-04-09T23:12:49.761Z,5.20
2023-04-09T23:15:17.834Z,5.10
2023-04-09T23:17:44.996Z,5.10
2023-04-09T23:20:14.611Z,5.10
2023-04-09T23:22:42.101Z,5.00
2023-04-09T23:25:09.293Z,5.00
2023-04-09T23:27:36.365Z,4.90
2023-04-09T23:30:03.552Z,4.90
2023-04-09T23:32:31.011Z,4.90
2023-04-09T23:35:01.010Z,4.90
2023-04-09T23:37:28.119Z,4.90
2023-04-09T23:39:55.359Z,4.90
2023-04-09T23:42:22.407Z,4.90
2023-04-09T23:44:50.269Z,4.80
2023-04-09T23:47:17.415Z,4.90
2023-04-09T23:49:44.863Z,4.80
2023-04-09T23:52:11.981Z,4.80
2023-04-09T23:54:39.078Z,4.70
2023-04-09T23:57:06.129Z,4.70
2023-04-09T23:59:35.914Z,4.60
